Martin City, Missouri
Current Conditions -  °F | °C
As of 8:53 AM on Wednesday 22 Oct 2014 (Local Time) from KOJC Reporting Station
Overcast Overcast  
Wind Chill: 54°   Ceiling: 8000
Heat Index: 54°   Visibility: 10mi
Dew Point: 47°   Wind: 12mph
Humidity: 77%   Direction: 140°SE
Pressure: 30.19"   Gusts: NA
Location:  38.8519°N, 94.5455°W
Report Text: KOJC 221353Z 14010KT 10SM FEW048 OVC080 12/08 A3019 RMK AO2 SLP219 T01220083
Loading
Personal Weather Stations






























Interactive Weather Map
Tropical Storm Tracking
New forecast layout! Learn more

10-Day Weather Forecast

Advertisements
Track Severe Weather on mobile